createdAt,value
2019-04-20T00:00:41.695Z,48.40
2019-04-20T00:03:07.740Z,49.40
2019-04-20T00:05:37.199Z,48.80
2019-04-20T00:08:08.928Z,48.70
2019-04-20T00:10:48.618Z,48.30
2019-04-20T00:13:19.402Z,48.70
2019-04-20T00:15:36.913Z,48.60
2019-04-20T00:18:08.133Z,48.30
2019-04-20T00:20:39.060Z,47.90
2019-04-20T00:23:19.756Z,48.80
2019-04-20T00:25:58.546Z,48.70
2019-04-20T00:28:33.377Z,48.80
2019-04-20T00:31:04.223Z,49.00
2019-04-20T00:33:34.960Z,48.20
2019-04-20T00:35:46.366Z,47.80
2019-04-20T00:38:16.032Z,48.00
2019-04-20T00:40:45.493Z,48.70
2019-04-20T00:43:24.484Z,47.90
2019-04-20T00:45:51.636Z,48.10
2019-04-20T00:48:25.092Z,47.30
2019-04-20T00:51:00.943Z,47.30
2019-04-20T00:53:22.650Z,48.10
2019-04-20T00:55:46.332Z,47.70
2019-04-20T00:58:23.375Z,47.80
2019-04-20T01:01:07.296Z,48.00
2019-04-20T01:03:27.657Z,48.30
2019-04-20T01:06:11.095Z,48.20
2019-04-20T01:08:38.524Z,47.70
2019-04-20T01:11:08.197Z,48.00
2019-04-20T01:13:46.058Z,48.00
2019-04-20T01:16:18.546Z,48.50
2019-04-20T01:18:37.939Z,48.40
2019-04-20T01:21:14.874Z,48.10
2019-04-20T01:23:44.276Z,47.90
2019-04-20T01:26:11.459Z,47.80
2019-04-20T01:28:51.104Z,48.00
2019-04-20T01:31:19.859Z,49.00
2019-04-20T01:33:49.183Z,48.80
2019-04-20T01:36:29.638Z,48.40
2019-04-20T01:38:55.445Z,48.60
2019-04-20T01:41:09.609Z,49.00
2019-04-20T01:43:39.414Z,48.90
2019-04-20T01:46:15.098Z,49.00
2019-04-20T01:48:41.331Z,49.50
2019-04-20T01:51:14.100Z,48.70
2019-04-20T01:54:02.127Z,48.90
2019-04-20T01:56:31.623Z,50.00
2019-04-20T01:59:05.998Z,49.20
2019-04-20T02:01:28.050Z,48.40
2019-04-20T02:03:57.477Z,49.10
2019-04-20T02:06:29.162Z,48.30
2019-04-20T02:09:03.341Z,48.20
2019-04-20T02:11:34.469Z,48.70
2019-04-20T02:14:02.273Z,48.80
2019-04-20T02:16:35.703Z,48.90
2019-04-20T02:19:13.577Z,48.40
2019-04-20T02:21:47.604Z,48.50
2019-04-20T02:24:02.646Z,48.10
2019-04-20T02:26:30.250Z,47.90
2019-04-20T02:29:29.147Z,48.20
2019-04-20T02:34:39.387Z,48.80
2019-04-20T02:37:24.557Z,49.10
2019-04-20T02:39:45.344Z,48.50
2019-04-20T02:47:14.722Z,49.60
2019-04-20T02:49:48.695Z,49.00
2019-04-20T02:52:12.836Z,49.00
2019-04-20T02:54:36.986Z,49.00
2019-04-20T02:57:18.092Z,48.70
2019-04-20T03:01:59.268Z,48.80
2019-04-20T03:04:23.330Z,48.80
2019-04-20T03:07:01.057Z,48.70
2019-04-20T03:09:36.839Z,48.90
2019-04-20T03:12:23.823Z,49.40
2019-04-20T03:14:26.638Z,49.50
2019-04-20T03:17:08.582Z,48.80
2019-04-20T03:19:28.626Z,48.50
2019-04-20T03:22:09.807Z,48.70
2019-04-20T03:24:38.825Z,49.00
2019-04-20T03:27:07.461Z,50.50
2019-04-20T03:29:51.001Z,49.80
2019-04-20T03:33:00.111Z,48.90
2019-04-20T03:37:28.039Z,49.10
2019-04-20T03:39:46.789Z,48.90
2019-04-20T03:42:00.920Z,48.10
2019-04-20T03:44:32.529Z,47.90
2019-04-20T03:47:05.431Z,48.00
2019-04-20T03:49:54.857Z,47.90
2019-04-20T03:52:36.726Z,48.00
2019-04-20T03:55:16.105Z,48.20
2019-04-20T03:57:57.524Z,48.10
2019-04-20T04:00:43.302Z,48.00
2019-04-20T04:03:43.758Z,48.20
2019-04-20T04:05:50.696Z,48.20
2019-04-20T04:08:19.428Z,48.30
2019-04-20T04:10:58.487Z,48.80
2019-04-20T04:13:12.292Z,48.60
2019-04-20T04:15:48.266Z,48.90
2019-04-20T04:18:19.696Z,47.50
2019-04-20T04:20:51.283Z,48.50
2019-04-20T04:23:32.593Z,48.40
2019-04-20T04:26:05.768Z,47.40
2019-04-20T04:28:35.144Z,47.30
2019-04-20T04:31:10.397Z,47.20
2019-04-20T04:36:00.659Z,47.50
2019-04-20T04:38:37.406Z,48.10
2019-04-20T04:41:13.451Z,48.60
2019-04-20T04:43:37.296Z,47.90
2019-04-20T04:45:48.791Z,47.90
2019-04-20T04:48:22.374Z,47.80
2019-04-20T04:50:57.322Z,47.90
2019-04-20T04:53:31.245Z,48.70
2019-04-20T04:55:56.309Z,49.00
2019-04-20T04:58:19.554Z,48.70
2019-04-20T05:00:49.362Z,48.00
2019-04-20T05:03:33.943Z,49.00
2019-04-20T05:06:08.776Z,47.90
2019-04-20T05:08:27.290Z,48.20
2019-04-20T05:10:52.021Z,46.70
2019-04-20T05:13:21.822Z,47.10
2019-04-20T05:16:05.280Z,47.10
2019-04-20T05:18:45.166Z,47.00
2019-04-20T05:21:10.144Z,47.20
2019-04-20T05:23:42.389Z,47.80
2019-04-20T05:26:22.696Z,47.30
2019-04-20T05:28:47.233Z,47.30
2019-04-20T05:31:06.883Z,47.70
2019-04-20T05:33:57.115Z,46.70
2019-04-20T05:36:23.450Z,47.60
2019-04-20T05:38:55.744Z,47.60
2019-04-20T05:41:21.322Z,47.30
2019-04-20T05:43:56.637Z,47.70
2019-04-20T05:46:43.041Z,47.10
2019-04-20T05:49:04.542Z,47.50
2019-04-20T05:51:38.274Z,47.40
2019-04-20T05:54:02.705Z,46.80
2019-04-20T05:56:35.317Z,47.00
2019-04-20T05:58:59.547Z,46.70
2019-04-20T06:01:36.338Z,47.20
2019-04-20T06:03:57.877Z,46.50
2019-04-20T06:06:34.632Z,46.00
2019-04-20T06:11:31.982Z,46.20
2019-04-20T06:13:59.001Z,45.60
2019-04-20T06:16:45.758Z,45.90
2019-04-20T06:19:21.895Z,46.00
2019-04-20T06:21:45.719Z,45.90
2019-04-20T06:24:27.851Z,45.90
2019-04-20T06:26:59.431Z,45.20
2019-04-20T06:29:22.170Z,44.70
2019-04-20T06:31:59.206Z,45.30
2019-04-20T06:37:01.621Z,44.90
2019-04-20T06:42:13.977Z,45.40
2019-04-20T06:55:03.046Z,43.40
2019-04-20T06:57:34.635Z,43.60
2019-04-20T07:00:10.173Z,43.40
2019-04-20T07:02:41.396Z,44.30
2019-04-20T07:05:22.402Z,44.30
2019-04-20T07:07:35.845Z,44.10
2019-04-20T07:10:16.322Z,42.60
2019-04-20T07:12:33.369Z,43.30
2019-04-20T07:14:56.256Z,43.80
2019-04-20T07:17:54.930Z,43.30
2019-04-20T07:20:35.099Z,43.50
2019-04-20T07:23:18.164Z,44.70
2019-04-20T07:25:38.801Z,43.30
2019-04-20T07:28:05.849Z,46.20
2019-04-20T07:30:35.458Z,44.40
2019-04-20T07:33:04.212Z,44.10
2019-04-20T07:35:35.755Z,44.70
2019-04-20T07:40:36.079Z,43.50
2019-04-20T07:43:08.782Z,43.20
2019-04-20T07:45:34.881Z,43.30
2019-04-20T07:48:11.290Z,43.20
2019-04-20T07:50:29.644Z,43.30
2019-04-20T07:53:07.172Z,44.60
2019-04-20T07:55:47.782Z,41.90
2019-04-20T07:58:01.365Z,43.90
2019-04-20T08:00:49.719Z,42.60
2019-04-20T08:03:29.720Z,42.70
2019-04-20T08:05:46.620Z,41.80
2019-04-20T08:08:23.883Z,40.40
2019-04-20T08:10:55.441Z,39.60
2019-04-20T08:13:33.360Z,39.10
2019-04-20T08:15:58.320Z,41.10
2019-04-20T08:20:59.612Z,38.80
2019-04-20T08:23:33.512Z,37.20
2019-04-20T08:25:45.518Z,38.40
2019-04-20T08:28:29.152Z,36.70
2019-04-20T08:31:09.288Z,35.10
2019-04-20T08:34:01.799Z,37.70
2019-04-20T08:36:23.449Z,36.10
2019-04-20T08:41:17.939Z,35.90
2019-04-20T08:43:58.948Z,33.70
2019-04-20T08:46:30.955Z,32.50
2019-04-20T08:48:52.017Z,32.70
2019-04-20T08:51:26.134Z,29.70
2019-04-20T08:53:51.784Z,29.50
2019-04-20T08:56:18.753Z,32.20
2019-04-20T08:58:36.145Z,32.40
2019-04-20T09:01:08.740Z,35.60
2019-04-20T09:03:46.367Z,32.50
2019-04-20T09:06:18.218Z,31.80
2019-04-20T09:08:49.249Z,30.00
2019-04-20T09:11:21.924Z,30.60
2019-04-20T09:13:43.226Z,30.60
2019-04-20T09:16:08.638Z,30.40
2019-04-20T09:18:51.450Z,29.90
2019-04-20T09:21:24.896Z,32.30
2019-04-20T09:23:56.051Z,32.30
2019-04-20T09:26:35.006Z,30.90
2019-04-20T09:28:59.142Z,33.60
2019-04-20T09:31:40.810Z,32.90
2019-04-20T09:34:17.303Z,33.30
2019-04-20T09:36:56.395Z,34.70
2019-04-20T09:39:29.587Z,30.90
2019-04-20T09:42:01.476Z,32.20
2019-04-20T09:44:31.516Z,33.60
2019-04-20T09:47:00.313Z,33.60
2019-04-20T09:49:40.193Z,31.60
2019-04-20T09:52:13.282Z,32.00
2019-04-20T09:54:48.310Z,38.90
2019-04-20T09:57:22.611Z,36.70
2019-04-20T09:59:50.074Z,32.40
2019-04-20T10:02:06.624Z,32.30
2019-04-20T10:04:29.470Z,31.50
2019-04-20T10:07:02.305Z,32.20
2019-04-20T10:09:34.453Z,35.50
2019-04-20T10:11:59.672Z,31.80
2019-04-20T10:14:28.891Z,31.80
2019-04-20T10:16:58.020Z,30.60
2019-04-20T10:19:32.667Z,31.90
2019-04-20T10:21:57.082Z,31.00
2019-04-20T10:24:26.503Z,30.90
2019-04-20T10:26:56.509Z,30.30
2019-04-20T10:29:25.838Z,28.70
2019-04-20T10:31:57.176Z,31.20
2019-04-20T10:34:24.668Z,34.70
2019-04-20T10:36:55.544Z,35.10
2019-04-20T10:39:28.811Z,29.30
2019-04-20T10:42:01.245Z,27.20
2019-04-20T10:44:29.305Z,29.80
2019-04-20T10:46:58.816Z,31.20
2019-04-20T10:49:27.451Z,29.80
2019-04-20T10:51:55.923Z,30.60
2019-04-20T10:54:24.761Z,31.70
2019-04-20T10:56:53.357Z,30.80
2019-04-20T10:59:21.812Z,29.70
2019-04-20T11:01:51.700Z,29.70
2019-04-20T11:04:20.880Z,28.40
2019-04-20T11:06:50.354Z,30.40
2019-04-20T11:09:18.953Z,28.70
2019-04-20T11:11:48.273Z,29.50
2019-04-20T11:14:25.765Z,30.90
2019-04-20T11:16:48.528Z,29.70
2019-04-20T11:19:17.040Z,29.20
2019-04-20T11:21:46.324Z,28.10
2019-04-20T11:24:16.283Z,28.60
2019-04-20T11:26:46.819Z,28.80
2019-04-20T11:29:16.105Z,30.40
2019-04-20T11:31:49.495Z,28.10
2019-04-20T11:34:21.887Z,30.20
2019-04-20T11:36:45.442Z,29.10
2019-04-20T11:39:14.759Z,29.10
2019-04-20T11:41:43.835Z,27.70
2019-04-20T11:44:13.756Z,30.40
2019-04-20T11:46:42.937Z,28.70
2019-04-20T11:49:11.653Z,29.30
2019-04-20T11:51:41.351Z,29.40
2019-04-20T11:54:10.450Z,30.00
2019-04-20T11:56:43.508Z,30.70
2019-04-20T11:59:09.583Z,29.10
2019-04-20T12:01:49.485Z,28.80
2019-04-20T12:04:29.447Z,28.50
2019-04-20T12:06:46.506Z,28.60
2019-04-20T12:09:15.249Z,27.70
2019-04-20T12:11:56.298Z,29.40
2019-04-20T12:14:14.467Z,30.60
2019-04-20T12:16:43.774Z,29.10
2019-04-20T12:19:12.702Z,26.60
2019-04-20T12:21:42.190Z,26.70
2019-04-20T12:24:12.148Z,26.20
2019-04-20T12:26:40.804Z,28.90
2019-04-20T12:29:09.937Z,27.50
2019-04-20T12:31:39.684Z,27.80
2019-04-20T12:34:08.647Z,27.90
2019-04-20T12:36:37.396Z,27.90
2019-04-20T12:39:08.886Z,31.90
2019-04-20T12:41:46.278Z,28.80
2019-04-20T12:44:09.656Z,29.00
2019-04-20T12:46:38.622Z,29.30
2019-04-20T12:49:07.698Z,27.20
2019-04-20T12:51:47.536Z,26.90
2019-04-20T12:54:06.775Z,27.60
2019-04-20T12:56:35.419Z,25.50
2019-04-20T12:59:05.375Z,26.10
2019-04-20T13:01:35.331Z,25.80
2019-04-20T13:04:07.359Z,26.40
2019-04-20T13:06:37.285Z,26.10
2019-04-20T13:09:10.651Z,24.10
2019-04-20T13:11:51.644Z,25.40
2019-04-20T13:14:44.295Z,27.50
2019-04-20T13:17:12.953Z,25.40
2019-04-20T13:19:41.564Z,25.20
2019-04-20T13:22:10.883Z,25.10
2019-04-20T13:24:40.999Z,25.40
2019-04-20T13:27:10.901Z,25.30
2019-04-20T13:29:40.568Z,24.80
2019-04-20T13:32:09.726Z,24.20
2019-04-20T13:34:38.374Z,23.80
2019-04-20T13:37:08.354Z,24.40
2019-04-20T13:39:38.438Z,22.90
2019-04-20T13:42:13.968Z,26.80
2019-04-20T13:44:37.387Z,23.20
2019-04-20T13:47:07.151Z,23.10
2019-04-20T13:49:36.824Z,26.00
2019-04-20T13:52:06.653Z,23.70
2019-04-20T13:54:35.845Z,23.10
2019-04-20T13:57:06.815Z,23.90
2019-04-20T13:59:41.937Z,21.70
2019-04-20T14:02:12.950Z,23.90
2019-04-20T14:04:44.468Z,22.10
2019-04-20T14:07:15.406Z,21.90
2019-04-20T14:09:43.917Z,21.40
2019-04-20T14:12:22.413Z,20.80
2019-04-20T14:14:43.424Z,22.10
2019-04-20T14:17:12.970Z,23.00
2019-04-20T14:19:41.548Z,22.00
2019-04-20T14:22:10.298Z,24.00
2019-04-20T14:24:40.277Z,24.40
2019-04-20T14:27:08.977Z,25.40
2019-04-20T14:29:38.927Z,23.60
2019-04-20T14:32:08.898Z,23.20
2019-04-20T14:34:38.635Z,22.00
2019-04-20T14:37:07.301Z,24.00
2019-04-20T14:39:36.389Z,25.20
2019-04-20T14:42:05.005Z,25.20
2019-04-20T14:44:33.994Z,22.90
2019-04-20T14:47:03.651Z,23.60
2019-04-20T14:49:32.633Z,22.60
2019-04-20T14:52:02.826Z,21.90
2019-04-20T14:54:31.880Z,24.90
2019-04-20T14:57:01.367Z,21.60
2019-04-20T14:59:31.756Z,22.50
2019-04-20T15:02:02.815Z,19.40
2019-04-20T15:04:32.829Z,21.10
2019-04-20T15:07:02.474Z,23.50
2019-04-20T15:09:34.263Z,21.40
2019-04-20T15:12:02.934Z,24.30
2019-04-20T15:14:32.435Z,24.20
2019-04-20T15:17:01.039Z,20.50
2019-04-20T15:19:31.715Z,23.40
2019-04-20T15:22:03.151Z,22.30
2019-04-20T15:24:31.713Z,19.80
2019-04-20T15:27:00.480Z,21.30
2019-04-20T15:29:30.414Z,20.10
2019-04-20T15:31:59.903Z,22.90
2019-04-20T15:34:28.956Z,23.30
2019-04-20T15:36:58.238Z,23.20
2019-04-20T15:39:27.404Z,22.50
2019-04-20T15:41:57.085Z,19.30
2019-04-20T15:44:25.614Z,22.70
2019-04-20T15:46:55.434Z,21.60
2019-04-20T15:49:24.061Z,21.40
2019-04-20T15:51:52.710Z,20.10
2019-04-20T15:54:21.166Z,23.20
2019-04-20T15:56:56.426Z,20.60
2019-04-20T15:59:20.202Z,22.30
2019-04-20T16:01:51.387Z,24.10
2019-04-20T16:04:41.610Z,21.90
2019-04-20T16:07:10.887Z,21.60
2019-04-20T16:09:39.949Z,22.70
2019-04-20T16:12:08.905Z,23.80
2019-04-20T16:14:37.910Z,24.40
2019-04-20T16:17:08.679Z,21.80
2019-04-20T16:19:46.134Z,25.30
2019-04-20T16:22:07.925Z,22.00
2019-04-20T16:24:46.936Z,25.70
2019-04-20T16:27:29.673Z,24.60
2019-04-20T16:29:59.802Z,25.60
2019-04-20T16:32:28.560Z,27.70
2019-04-20T16:34:58.196Z,20.20
2019-04-20T16:37:26.901Z,24.60
2019-04-20T16:39:56.641Z,27.90
2019-04-20T16:42:26.558Z,27.60
2019-04-20T16:44:56.848Z,26.40
2019-04-20T16:47:26.020Z,27.30
2019-04-20T16:49:55.047Z,27.90
2019-04-20T16:52:25.078Z,27.80
2019-04-20T16:54:53.891Z,28.50
2019-04-20T16:57:23.675Z,30.20
2019-04-20T16:59:55.737Z,29.00
2019-04-20T17:02:22.828Z,31.40
2019-04-20T17:04:53.603Z,29.40
2019-04-20T17:07:26.876Z,31.40
2019-04-20T17:09:55.991Z,31.50
2019-04-20T17:12:25.817Z,32.60
2019-04-20T17:14:55.738Z,35.10
2019-04-20T17:17:25.292Z,33.70
2019-04-20T17:19:53.960Z,32.30
2019-04-20T17:22:23.432Z,34.50
2019-04-20T17:24:53.761Z,35.10
2019-04-20T17:27:27.212Z,34.30
2019-04-20T17:30:17.937Z,34.30
2019-04-20T17:32:45.443Z,34.90
2019-04-20T17:35:27.408Z,35.30
2019-04-20T17:37:46.995Z,35.40
2019-04-20T17:40:35.498Z,34.90
2019-04-20T17:42:56.385Z,36.30
2019-04-20T17:45:28.263Z,36.20
2019-04-20T17:48:02.129Z,35.70
2019-04-20T17:50:35.690Z,35.00
2019-04-20T17:53:03.588Z,34.40
2019-04-20T17:58:14.711Z,36.20
2019-04-20T18:00:49.452Z,37.40
2019-04-20T18:03:54.883Z,36.80
2019-04-20T18:06:09.493Z,34.40
2019-04-20T18:08:37.011Z,34.60
2019-04-20T18:10:59.824Z,34.00
2019-04-20T18:13:23.977Z,34.30
2019-04-20T18:16:14.435Z,35.10
2019-04-20T18:18:36.037Z,35.20
2019-04-20T18:21:14.839Z,36.20
2019-04-20T18:23:46.786Z,35.60
2019-04-20T18:26:31.724Z,35.80
2019-04-20T18:29:20.195Z,34.90
2019-04-20T18:31:17.561Z,34.80
2019-04-20T18:33:46.646Z,35.00
2019-04-20T18:36:23.447Z,37.00
2019-04-20T18:38:54.039Z,37.60
2019-04-20T18:41:29.035Z,36.20
2019-04-20T18:43:50.802Z,36.40
2019-04-20T18:46:34.514Z,36.30
2019-04-20T18:49:05.926Z,36.70
2019-04-20T18:51:17.639Z,37.30
2019-04-20T18:53:49.774Z,36.70
2019-04-20T18:56:23.688Z,37.60
2019-04-20T18:58:47.061Z,36.50
2019-04-20T19:01:16.953Z,36.50
2019-04-20T19:03:47.725Z,37.40
2019-04-20T19:06:16.159Z,37.30
2019-04-20T19:08:49.681Z,37.10
2019-04-20T19:11:19.468Z,37.20
2019-04-20T19:13:48.135Z,37.40
2019-04-20T19:16:28.513Z,37.40
2019-04-20T19:19:04.153Z,37.60
2019-04-20T19:21:21.458Z,38.40
2019-04-20T19:23:57.921Z,39.40
2019-04-20T19:26:22.803Z,39.40
2019-04-20T19:28:55.810Z,38.20
2019-04-20T19:31:39.264Z,37.80
2019-04-20T19:34:12.997Z,37.70
2019-04-20T19:36:33.117Z,38.00
2019-04-20T19:39:10.798Z,37.00
2019-04-20T19:41:36.267Z,39.50
2019-04-20T19:44:07.039Z,39.00
2019-04-20T19:46:48.308Z,37.80
2019-04-20T19:49:04.151Z,36.50
2019-04-20T19:51:47.957Z,36.60
2019-04-20T19:54:18.548Z,37.30
2019-04-20T19:56:44.336Z,37.80
2019-04-20T19:59:09.808Z,38.00
2019-04-20T20:01:24.458Z,38.50
2019-04-20T20:03:56.318Z,36.80
2019-04-20T20:06:29.098Z,36.90
2019-04-20T20:08:59.031Z,36.70
2019-04-20T20:11:29.476Z,36.60
2019-04-20T20:13:55.803Z,37.70
2019-04-20T20:16:33.708Z,37.30
2019-04-20T20:19:07.643Z,37.50
2019-04-20T20:21:39.913Z,38.30
2019-04-20T20:23:56.451Z,38.30
2019-04-20T20:26:33.593Z,37.60
2019-04-20T20:29:09.491Z,39.10
2019-04-20T20:31:38.413Z,38.10
2019-04-20T20:34:09.657Z,38.30
2019-04-20T20:36:38.283Z,37.90
2019-04-20T20:39:04.608Z,38.60
2019-04-20T20:41:38.947Z,38.30
2019-04-20T20:44:06.950Z,38.20
2019-04-20T20:46:36.100Z,38.50
2019-04-20T20:49:18.386Z,38.50
2019-04-20T20:51:50.111Z,38.20
2019-04-20T20:54:09.232Z,38.80
2019-04-20T20:56:35.190Z,38.30
2019-04-20T20:59:09.005Z,39.20
2019-04-20T21:01:42.501Z,39.50
2019-04-20T21:04:00.618Z,39.40
2019-04-20T21:06:30.579Z,40.00
2019-04-20T21:09:00.297Z,40.40
2019-04-20T21:11:32.404Z,39.40
2019-04-20T21:13:59.694Z,39.40
2019-04-20T21:16:31.924Z,39.40
2019-04-20T21:19:12.961Z,39.90
2019-04-20T21:21:42.542Z,38.40
2019-04-20T21:24:08.977Z,38.70
2019-04-20T21:26:37.572Z,39.80
2019-04-20T21:29:03.962Z,39.90
2019-04-20T21:31:32.766Z,40.60
2019-04-20T21:34:06.833Z,40.50
2019-04-20T21:36:33.493Z,40.00
2019-04-20T21:39:03.532Z,40.10
2019-04-20T21:41:32.105Z,39.70
2019-04-20T21:44:01.304Z,39.90
2019-04-20T21:46:40.894Z,40.50
2019-04-20T21:49:13.871Z,40.20
2019-04-20T21:51:42.497Z,40.50
2019-04-20T21:54:02.939Z,39.60
2019-04-20T21:56:31.692Z,39.40
2019-04-20T21:59:03.844Z,39.50
2019-04-20T22:01:37.681Z,39.60
2019-04-20T22:04:00.669Z,40.40
2019-04-20T22:06:29.752Z,40.30
2019-04-20T22:09:02.093Z,40.70
2019-04-20T22:11:29.537Z,41.70
2019-04-20T22:14:03.162Z,40.80
2019-04-20T22:16:35.358Z,41.20
2019-04-20T22:19:16.009Z,40.60
2019-04-20T22:21:43.556Z,41.00
2019-04-20T22:24:10.526Z,40.50
2019-04-20T22:26:39.489Z,40.40
2019-04-20T22:29:00.462Z,39.60
2019-04-20T22:31:29.894Z,39.40
2019-04-20T22:34:02.276Z,39.30
2019-04-20T22:36:35.591Z,40.00
2019-04-20T22:39:13.834Z,40.50
2019-04-20T22:41:52.445Z,39.90
2019-04-20T22:44:20.681Z,40.60
2019-04-20T22:46:46.135Z,40.60
2019-04-20T22:49:33.008Z,40.70
2019-04-20T22:51:55.568Z,40.20
2019-04-20T22:54:34.071Z,39.50
2019-04-20T22:56:59.934Z,39.40
2019-04-20T22:59:21.154Z,39.20
2019-04-20T23:01:53.428Z,40.20
2019-04-20T23:04:19.146Z,40.60
2019-04-20T23:06:50.250Z,41.50
2019-04-20T23:09:18.737Z,40.80
2019-04-20T23:11:47.566Z,40.20
2019-04-20T23:14:16.337Z,41.10
2019-04-20T23:16:49.252Z,40.70
2019-04-20T23:19:28.190Z,41.10
2019-04-20T23:21:48.634Z,41.10
2019-04-20T23:24:17.084Z,40.30
2019-04-20T23:26:47.332Z,40.90
2019-04-20T23:29:17.398Z,40.70
2019-04-20T23:31:52.307Z,40.10
2019-04-20T23:34:21.623Z,39.70
2019-04-20T23:36:49.370Z,40.30
2019-04-20T23:39:17.112Z,41.40
2019-04-20T23:41:53.652Z,41.80
2019-04-20T23:44:21.104Z,41.90
2019-04-20T23:47:02.756Z,41.10
2019-04-20T23:49:50.616Z,42.00
2019-04-20T23:52:27.086Z,41.30
2019-04-20T23:54:35.127Z,41.20
2019-04-20T23:57:03.815Z,41.60
2019-04-20T23:59:39.241Z,41.40
